sensor_id;sensor_type;location;lat;lon;timestamp;temperature;humidity
25963;DHT22;13760;52.588;13.406;2024-01-30T00:01:17;2.20;99.90
25963;DHT22;13760;52.588;13.406;2024-01-30T00:03:43;2.20;99.90
25963;DHT22;13760;52.588;13.406;2024-01-30T00:06:09;2.10;99.90
25963;DHT22;13760;52.588;13.406;2024-01-30T00:08:34;2.10;99.90
25963;DHT22;13760;52.588;13.406;2024-01-30T00:11:00;2.10;99.90
25963;DHT22;13760;52.588;13.406;2024-01-30T00:13:26;2.10;99.90
25963;DHT22;13760;52.588;13.406;2024-01-30T00:15:51;2.00;99.90
25963;DHT22;13760;52.588;13.406;2024-01-30T00:18:17;2.00;99.90
25963;DHT22;13760;52.588;13.406;2024-01-30T00:20:44;2.00;99.90
25963;DHT22;13760;52.588;13.406;2024-01-30T00:23:09;2.00;99.90
25963;DHT22;13760;52.588;13.406;2024-01-30T00:25:35;1.90;99.90
25963;DHT22;13760;52.588;13.406;2024-01-30T00:28:00;1.90;99.90
25963;DHT22;13760;52.588;13.406;2024-01-30T00:30:26;1.90;99.90
25963;DHT22;13760;52.588;13.406;2024-01-30T00:32:52;1.90;99.90
25963;DHT22;13760;52.588;13.406;2024-01-30T00:35:17;1.80;99.90
25963;DHT22;13760;52.588;13.406;2024-01-30T00:37:43;1.80;99.90
25963;DHT22;13760;52.588;13.406;2024-01-30T00:40:09;1.80;99.90
25963;DHT22;13760;52.588;13.406;2024-01-30T00:42:41;1.80;99.90
25963;DHT22;13760;52.588;13.406;2024-01-30T00:45:12;1.70;99.90
25963;DHT22;13760;52.588;13.406;2024-01-30T00:47:37;1.70;99.90
25963;DHT22;13760;52.588;13.406;2024-01-30T00:50:03;1.70;99.90
25963;DHT22;13760;52.588;13.406;2024-01-30T00:52:29;1.70;99.90
25963;DHT22;13760;52.588;13.406;2024-01-30T00:54:54;1.70;99.90
25963;DHT22;13760;52.588;13.406;2024-01-30T00:57:20;1.70;99.90
25963;DHT22;13760;52.588;13.406;2024-01-30T00:59:45;1.70;99.90
25963;DHT22;13760;52.588;13.406;2024-01-30T01:02:10;1.70;99.90
25963;DHT22;13760;52.588;13.406;2024-01-30T01:04:36;1.70;99.90
25963;DHT22;13760;52.588;13.406;2024-01-30T01:07:01;1.80;99.90
25963;DHT22;13760;52.588;13.406;2024-01-30T01:09:27;1.70;99.90
25963;DHT22;13760;52.588;13.406;2024-01-30T01:11:52;1.70;99.90
25963;DHT22;13760;52.588;13.406;2024-01-30T01:14:18;1.70;99.90
25963;DHT22;13760;52.588;13.406;2024-01-30T01:16:43;1.70;99.90
25963;DHT22;13760;52.588;13.406;2024-01-30T01:19:09;1.70;99.90
25963;DHT22;13760;52.588;13.406;2024-01-30T01:21:35;1.70;99.90
25963;DHT22;13760;52.588;13.406;2024-01-30T01:24:00;1.70;99.90
25963;DHT22;13760;52.588;13.406;2024-01-30T01:26:25;1.70;99.90
25963;DHT22;13760;52.588;13.406;2024-01-30T01:28:51;1.80;99.90
25963;DHT22;13760;52.588;13.406;2024-01-30T01:31:17;1.80;99.90
25963;DHT22;13760;52.588;13.406;2024-01-30T01:33:43;1.80;99.90
25963;DHT22;13760;52.588;13.406;2024-01-30T01:36:08;1.80;99.90
25963;DHT22;13760;52.588;13.406;2024-01-30T01:38:34;1.70;99.90
25963;DHT22;13760;52.588;13.406;2024-01-30T01:40:59;1.80;99.90
25963;DHT22;13760;52.588;13.406;2024-01-30T01:43:25;1.80;99.90
25963;DHT22;13760;52.588;13.406;2024-01-30T01:45:50;1.80;99.90
25963;DHT22;13760;52.588;13.406;2024-01-30T01:48:16;1.80;99.90
25963;DHT22;13760;52.588;13.406;2024-01-30T01:50:42;1.80;99.90
25963;DHT22;13760;52.588;13.406;2024-01-30T01:53:09;1.80;99.90
25963;DHT22;13760;52.588;13.406;2024-01-30T01:55:35;1.90;99.90
25963;DHT22;13760;52.588;13.406;2024-01-30T01:58:01;1.90;99.90
25963;DHT22;13760;52.588;13.406;2024-01-30T02:00:27;1.90;99.90
25963;DHT22;13760;52.588;13.406;2024-01-30T02:02:54;1.90;99.90
25963;DHT22;13760;52.588;13.406;2024-01-30T02:05:21;1.90;99.90
25963;DHT22;13760;52.588;13.406;2024-01-30T02:07:46;1.90;99.90
25963;DHT22;13760;52.588;13.406;2024-01-30T02:10:12;1.90;99.90
25963;DHT22;13760;52.588;13.406;2024-01-30T02:12:38;1.90;99.90
25963;DHT22;13760;52.588;13.406;2024-01-30T02:15:04;2.00;99.90
25963;DHT22;13760;52.588;13.406;2024-01-30T02:17:30;1.90;99.90
25963;DHT22;13760;52.588;13.406;2024-01-30T02:19:56;2.00;99.90
25963;DHT22;13760;52.588;13.406;2024-01-30T02:22:22;1.90;99.90
25963;DHT22;13760;52.588;13.406;2024-01-30T02:24:48;2.00;99.90
25963;DHT22;13760;52.588;13.406;2024-01-30T02:27:14;2.00;99.90
25963;DHT22;13760;52.588;13.406;2024-01-30T02:29:39;2.00;99.90
25963;DHT22;13760;52.588;13.406;2024-01-30T02:32:05;2.00;99.90
25963;DHT22;13760;52.588;13.406;2024-01-30T02:34:31;2.00;99.90
25963;DHT22;13760;52.588;13.406;2024-01-30T02:36:57;2.00;99.90
25963;DHT22;13760;52.588;13.406;2024-01-30T02:39:22;2.00;99.90
25963;DHT22;13760;52.588;13.406;2024-01-30T02:41:48;2.00;99.90
25963;DHT22;13760;52.588;13.406;2024-01-30T02:44:14;2.00;99.90
25963;DHT22;13760;52.588;13.406;2024-01-30T02:46:39;2.00;99.90
25963;DHT22;13760;52.588;13.406;2024-01-30T02:49:04;2.00;99.90
25963;DHT22;13760;52.588;13.406;2024-01-30T02:51:30;2.10;99.90
25963;DHT22;13760;52.588;13.406;2024-01-30T02:53:55;2.10;99.90
25963;DHT22;13760;52.588;13.406;2024-01-30T02:56:21;2.10;99.90
25963;DHT22;13760;52.588;13.406;2024-01-30T02:58:47;2.10;99.90
25963;DHT22;13760;52.588;13.406;2024-01-30T03:01:12;2.10;99.90
25963;DHT22;13760;52.588;13.406;2024-01-30T03:03:38;2.10;99.90
25963;DHT22;13760;52.588;13.406;2024-01-30T03:06:05;2.10;99.90
25963;DHT22;13760;52.588;13.406;2024-01-30T03:08:30;2.10;99.90
25963;DHT22;13760;52.588;13.406;2024-01-30T03:10:56;2.10;99.90
25963;DHT22;13760;52.588;13.406;2024-01-30T03:13:21;2.10;99.90
25963;DHT22;13760;52.588;13.406;2024-01-30T03:15:49;2.00;99.90
25963;DHT22;13760;52.588;13.406;2024-01-30T03:18:14;2.00;99.90
25963;DHT22;13760;52.588;13.406;2024-01-30T03:20:40;2.00;99.90
25963;DHT22;13760;52.588;13.406;2024-01-30T03:23:05;2.00;99.90
25963;DHT22;13760;52.588;13.406;2024-01-30T03:25:31;2.00;99.90
25963;DHT22;13760;52.588;13.406;2024-01-30T03:27:56;2.00;99.90
25963;DHT22;13760;52.588;13.406;2024-01-30T03:30:21;1.90;99.90
25963;DHT22;13760;52.588;13.406;2024-01-30T03:32:47;1.90;99.90
25963;DHT22;13760;52.588;13.406;2024-01-30T03:35:13;1.90;99.90
25963;DHT22;13760;52.588;13.406;2024-01-30T03:37:38;1.80;99.90
25963;DHT22;13760;52.588;13.406;2024-01-30T03:40:04;1.80;99.90
25963;DHT22;13760;52.588;13.406;2024-01-30T03:42:30;1.70;99.90
25963;DHT22;13760;52.588;13.406;2024-01-30T03:44:56;1.70;99.90
25963;DHT22;13760;52.588;13.406;2024-01-30T03:47:22;1.70;99.90
25963;DHT22;13760;52.588;13.406;2024-01-30T03:49:47;1.70;99.90
25963;DHT22;13760;52.588;13.406;2024-01-30T03:52:13;1.70;99.90
25963;DHT22;13760;52.588;13.406;2024-01-30T03:54:38;1.70;99.90
25963;DHT22;13760;52.588;13.406;2024-01-30T03:57:04;1.60;99.90
25963;DHT22;13760;52.588;13.406;2024-01-30T03:59:30;1.60;99.90
25963;DHT22;13760;52.588;13.406;2024-01-30T04:01:55;1.60;99.90
25963;DHT22;13760;52.588;13.406;2024-01-30T04:04:21;1.60;99.90
25963;DHT22;13760;52.588;13.406;2024-01-30T04:06:46;1.60;99.90
25963;DHT22;13760;52.588;13.406;2024-01-30T04:09:12;1.60;99.90
25963;DHT22;13760;52.588;13.406;2024-01-30T04:11:39;1.60;99.90
25963;DHT22;13760;52.588;13.406;2024-01-30T04:14:05;1.60;99.90
25963;DHT22;13760;52.588;13.406;2024-01-30T04:16:30;1.60;99.90
25963;DHT22;13760;52.588;13.406;2024-01-30T04:18:59;1.60;99.90
25963;DHT22;13760;52.588;13.406;2024-01-30T04:21:24;1.60;99.90
25963;DHT22;13760;52.588;13.406;2024-01-30T04:23:51;1.60;99.90
25963;DHT22;13760;52.588;13.406;2024-01-30T04:26:17;1.50;99.90
25963;DHT22;13760;52.588;13.406;2024-01-30T04:28:44;1.50;99.90
25963;DHT22;13760;52.588;13.406;2024-01-30T04:31:10;1.50;99.90
25963;DHT22;13760;52.588;13.406;2024-01-30T04:33:36;1.60;99.90
25963;DHT22;13760;52.588;13.406;2024-01-30T04:36:01;1.50;99.90
25963;DHT22;13760;52.588;13.406;2024-01-30T04:38:27;1.60;99.90
25963;DHT22;13760;52.588;13.406;2024-01-30T04:40:52;1.60;99.90
25963;DHT22;13760;52.588;13.406;2024-01-30T04:43:18;1.60;99.90
25963;DHT22;13760;52.588;13.406;2024-01-30T04:45:44;1.60;99.90
25963;DHT22;13760;52.588;13.406;2024-01-30T04:48:10;1.60;99.90
25963;DHT22;13760;52.588;13.406;2024-01-30T04:50:35;1.50;99.90
25963;DHT22;13760;52.588;13.406;2024-01-30T04:53:01;1.60;99.90
25963;DHT22;13760;52.588;13.406;2024-01-30T04:55:27;1.60;99.90
25963;DHT22;13760;52.588;13.406;2024-01-30T04:57:52;1.60;99.90
25963;DHT22;13760;52.588;13.406;2024-01-30T05:00:18;1.50;99.90
25963;DHT22;13760;52.588;13.406;2024-01-30T05:02:43;1.50;99.90
25963;DHT22;13760;52.588;13.406;2024-01-30T05:05:09;1.50;99.90
25963;DHT22;13760;52.588;13.406;2024-01-30T05:07:34;1.50;99.90
25963;DHT22;13760;52.588;13.406;2024-01-30T05:10:00;1.50;99.90
25963;DHT22;13760;52.588;13.406;2024-01-30T05:12:26;1.40;99.90
25963;DHT22;13760;52.588;13.406;2024-01-30T05:14:51;1.40;99.90
25963;DHT22;13760;52.588;13.406;2024-01-30T05:17:17;1.40;99.90
25963;DHT22;13760;52.588;13.406;2024-01-30T05:19:43;1.40;99.90
25963;DHT22;13760;52.588;13.406;2024-01-30T05:22:09;1.30;99.90
25963;DHT22;13760;52.588;13.406;2024-01-30T05:24:36;1.30;99.90
25963;DHT22;13760;52.588;13.406;2024-01-30T05:27:01;1.30;99.90
25963;DHT22;13760;52.588;13.406;2024-01-30T05:29:27;1.40;99.90
25963;DHT22;13760;52.588;13.406;2024-01-30T05:31:53;1.40;99.90
25963;DHT22;13760;52.588;13.406;2024-01-30T05:34:21;1.30;99.90
25963;DHT22;13760;52.588;13.406;2024-01-30T05:36:46;1.40;99.90
25963;DHT22;13760;52.588;13.406;2024-01-30T05:39:12;1.40;99.90
25963;DHT22;13760;52.588;13.406;2024-01-30T05:41:38;1.50;99.90
25963;DHT22;13760;52.588;13.406;2024-01-30T05:44:04;1.50;99.90
25963;DHT22;13760;52.588;13.406;2024-01-30T05:46:30;1.50;99.90
25963;DHT22;13760;52.588;13.406;2024-01-30T05:48:55;1.50;99.90
25963;DHT22;13760;52.588;13.406;2024-01-30T05:51:21;1.60;99.90
25963;DHT22;13760;52.588;13.406;2024-01-30T05:53:46;1.60;99.90
25963;DHT22;13760;52.588;13.406;2024-01-30T05:56:12;1.60;99.90
25963;DHT22;13760;52.588;13.406;2024-01-30T05:58:37;1.50;99.90
25963;DHT22;13760;52.588;13.406;2024-01-30T06:01:07;1.60;99.90
25963;DHT22;13760;52.588;13.406;2024-01-30T06:03:33;1.60;99.90
25963;DHT22;13760;52.588;13.406;2024-01-30T06:05:59;1.60;99.90
25963;DHT22;13760;52.588;13.406;2024-01-30T06:08:24;1.60;99.90
25963;DHT22;13760;52.588;13.406;2024-01-30T06:10:50;1.60;99.90
25963;DHT22;13760;52.588;13.406;2024-01-30T06:13:15;1.60;99.90
25963;DHT22;13760;52.588;13.406;2024-01-30T06:15:41;1.60;99.90
25963;DHT22;13760;52.588;13.406;2024-01-30T06:18:07;1.60;99.90
25963;DHT22;13760;52.588;13.406;2024-01-30T06:20:32;1.60;99.90
25963;DHT22;13760;52.588;13.406;2024-01-30T06:22:58;1.60;99.90
25963;DHT22;13760;52.588;13.406;2024-01-30T06:25:23;1.70;99.90
25963;DHT22;13760;52.588;13.406;2024-01-30T06:27:49;1.70;99.90
25963;DHT22;13760;52.588;13.406;2024-01-30T06:30:14;1.70;99.90
25963;DHT22;13760;52.588;13.406;2024-01-30T06:32:40;1.80;99.90
25963;DHT22;13760;52.588;13.406;2024-01-30T06:35:06;1.80;99.90
25963;DHT22;13760;52.588;13.406;2024-01-30T06:37:32;1.80;99.90
25963;DHT22;13760;52.588;13.406;2024-01-30T06:39:57;1.80;99.90
25963;DHT22;13760;52.588;13.406;2024-01-30T06:42:23;1.80;99.90
25963;DHT22;13760;52.588;13.406;2024-01-30T06:44:48;1.90;99.90
25963;DHT22;13760;52.588;13.406;2024-01-30T06:47:14;1.90;99.90
25963;DHT22;13760;52.588;13.406;2024-01-30T06:49:39;1.90;99.90
25963;DHT22;13760;52.588;13.406;2024-01-30T06:52:08;1.90;99.90
25963;DHT22;13760;52.588;13.406;2024-01-30T06:54:33;1.90;99.90
25963;DHT22;13760;52.588;13.406;2024-01-30T06:56:59;1.90;99.90
25963;DHT22;13760;52.588;13.406;2024-01-30T06:59:25;1.90;99.90
25963;DHT22;13760;52.588;13.406;2024-01-30T07:01:51;2.00;99.90
25963;DHT22;13760;52.588;13.406;2024-01-30T07:04:16;2.00;99.90
25963;DHT22;13760;52.588;13.406;2024-01-30T07:06:43;2.00;99.90
25963;DHT22;13760;52.588;13.406;2024-01-30T07:09:09;2.00;99.90
25963;DHT22;13760;52.588;13.406;2024-01-30T07:11:34;2.00;99.90
25963;DHT22;13760;52.588;13.406;2024-01-30T07:14:00;2.10;99.90
25963;DHT22;13760;52.588;13.406;2024-01-30T07:16:25;2.10;99.90
25963;DHT22;13760;52.588;13.406;2024-01-30T07:18:51;2.10;99.90
25963;DHT22;13760;52.588;13.406;2024-01-30T07:21:17;2.10;99.90
25963;DHT22;13760;52.588;13.406;2024-01-30T07:23:43;2.10;99.90
25963;DHT22;13760;52.588;13.406;2024-01-30T07:26:08;2.10;99.90
25963;DHT22;13760;52.588;13.406;2024-01-30T07:28:34;2.20;99.90
25963;DHT22;13760;52.588;13.406;2024-01-30T07:31:00;2.20;99.90
25963;DHT22;13760;52.588;13.406;2024-01-30T07:33:26;2.30;99.90
25963;DHT22;13760;52.588;13.406;2024-01-30T07:35:55;2.30;99.90
25963;DHT22;13760;52.588;13.406;2024-01-30T07:38:20;2.30;99.90
25963;DHT22;13760;52.588;13.406;2024-01-30T07:40:46;2.40;99.90
25963;DHT22;13760;52.588;13.406;2024-01-30T07:43:12;2.40;99.90
25963;DHT22;13760;52.588;13.406;2024-01-30T07:45:37;2.50;99.90
25963;DHT22;13760;52.588;13.406;2024-01-30T07:48:06;2.50;99.90
25963;DHT22;13760;52.588;13.406;2024-01-30T07:50:32;2.50;99.90
25963;DHT22;13760;52.588;13.406;2024-01-30T07:52:59;2.60;99.90
25963;DHT22;13760;52.588;13.406;2024-01-30T07:55:25;2.60;99.90
25963;DHT22;13760;52.588;13.406;2024-01-30T07:57:54;2.70;99.90
25963;DHT22;13760;52.588;13.406;2024-01-30T08:00:21;2.80;99.90
25963;DHT22;13760;52.588;13.406;2024-01-30T08:02:46;2.80;99.90
25963;DHT22;13760;52.588;13.406;2024-01-30T08:05:12;2.90;99.90
25963;DHT22;13760;52.588;13.406;2024-01-30T08:07:39;2.90;99.90
25963;DHT22;13760;52.588;13.406;2024-01-30T08:10:05;3.00;99.90
25963;DHT22;13760;52.588;13.406;2024-01-30T08:12:34;3.10;99.90
25963;DHT22;13760;52.588;13.406;2024-01-30T08:15:11;3.20;99.90
25963;DHT22;13760;52.588;13.406;2024-01-30T08:17:40;3.20;99.90
25963;DHT22;13760;52.588;13.406;2024-01-30T08:20:10;3.30;99.90
25963;DHT22;13760;52.588;13.406;2024-01-30T08:22:38;3.40;99.90
25963;DHT22;13760;52.588;13.406;2024-01-30T08:25:05;3.50;99.90
25963;DHT22;13760;52.588;13.406;2024-01-30T08:27:31;3.50;99.90
25963;DHT22;13760;52.588;13.406;2024-01-30T08:29:56;3.60;99.90
25963;DHT22;13760;52.588;13.406;2024-01-30T08:32:24;3.60;99.90
25963;DHT22;13760;52.588;13.406;2024-01-30T08:34:53;3.60;99.90
25963;DHT22;13760;52.588;13.406;2024-01-30T08:37:23;3.70;99.90
25963;DHT22;13760;52.588;13.406;2024-01-30T08:39:50;3.70;99.90
25963;DHT22;13760;52.588;13.406;2024-01-30T08:42:16;3.70;99.90
25963;DHT22;13760;52.588;13.406;2024-01-30T08:44:44;3.80;99.90
25963;DHT22;13760;52.588;13.406;2024-01-30T08:47:09;3.80;99.90
25963;DHT22;13760;52.588;13.406;2024-01-30T08:49:35;3.90;99.90
25963;DHT22;13760;52.588;13.406;2024-01-30T08:52:00;3.90;99.90
25963;DHT22;13760;52.588;13.406;2024-01-30T08:54:26;4.00;99.90
25963;DHT22;13760;52.588;13.406;2024-01-30T08:56:51;4.00;99.90
25963;DHT22;13760;52.588;13.406;2024-01-30T08:59:18;4.10;99.90
25963;DHT22;13760;52.588;13.406;2024-01-30T09:01:44;4.20;99.90
25963;DHT22;13760;52.588;13.406;2024-01-30T09:04:12;4.20;99.90
25963;DHT22;13760;52.588;13.406;2024-01-30T09:06:37;4.20;99.90
25963;DHT22;13760;52.588;13.406;2024-01-30T09:09:04;4.30;99.90
25963;DHT22;13760;52.588;13.406;2024-01-30T09:11:31;4.40;99.90
25963;DHT22;13760;52.588;13.406;2024-01-30T09:13:56;4.40;99.90
25963;DHT22;13760;52.588;13.406;2024-01-30T09:16:22;4.50;99.90
25963;DHT22;13760;52.588;13.406;2024-01-30T09:18:47;4.50;99.90
25963;DHT22;13760;52.588;13.406;2024-01-30T09:21:13;4.60;99.90
25963;DHT22;13760;52.588;13.406;2024-01-30T09:23:38;4.60;99.90
25963;DHT22;13760;52.588;13.406;2024-01-30T09:26:04;4.70;99.90
25963;DHT22;13760;52.588;13.406;2024-01-30T09:28:29;4.80;99.90
25963;DHT22;13760;52.588;13.406;2024-01-30T09:30:55;4.80;99.90
25963;DHT22;13760;52.588;13.406;2024-01-30T09:33:20;4.90;99.90
25963;DHT22;13760;52.588;13.406;2024-01-30T09:35:46;4.90;99.90
25963;DHT22;13760;52.588;13.406;2024-01-30T09:38:11;5.00;99.90
25963;DHT22;13760;52.588;13.406;2024-01-30T09:40:37;5.00;99.90
25963;DHT22;13760;52.588;13.406;2024-01-30T09:43:03;5.10;99.90
25963;DHT22;13760;52.588;13.406;2024-01-30T09:45:30;5.20;99.90
25963;DHT22;13760;52.588;13.406;2024-01-30T09:48:05;5.20;99.90
25963;DHT22;13760;52.588;13.406;2024-01-30T09:50:31;5.20;99.90
25963;DHT22;13760;52.588;13.406;2024-01-30T09:52:58;5.30;99.90
25963;DHT22;13760;52.588;13.406;2024-01-30T09:55:24;5.30;99.90
25963;DHT22;13760;52.588;13.406;2024-01-30T09:57:50;5.30;99.90
25963;DHT22;13760;52.588;13.406;2024-01-30T10:00:15;5.40;99.90
25963;DHT22;13760;52.588;13.406;2024-01-30T10:02:41;5.40;99.90
25963;DHT22;13760;52.588;13.406;2024-01-30T10:05:08;5.50;99.90
25963;DHT22;13760;52.588;13.406;2024-01-30T10:07:33;5.50;99.90
25963;DHT22;13760;52.588;13.406;2024-01-30T10:09:59;5.60;99.90
25963;DHT22;13760;52.588;13.406;2024-01-30T10:12:29;5.70;99.90
25963;DHT22;13760;52.588;13.406;2024-01-30T10:14:56;5.70;99.90
25963;DHT22;13760;52.588;13.406;2024-01-30T10:17:24;5.80;99.90
25963;DHT22;13760;52.588;13.406;2024-01-30T10:19:50;5.80;99.90
25963;DHT22;13760;52.588;13.406;2024-01-30T10:22:17;5.90;99.90
25963;DHT22;13760;52.588;13.406;2024-01-30T10:24:43;5.90;99.90
25963;DHT22;13760;52.588;13.406;2024-01-30T10:27:10;6.00;99.90
25963;DHT22;13760;52.588;13.406;2024-01-30T10:29:37;6.00;99.90
25963;DHT22;13760;52.588;13.406;2024-01-30T10:32:04;6.10;99.90
25963;DHT22;13760;52.588;13.406;2024-01-30T10:34:31;6.10;99.90
25963;DHT22;13760;52.588;13.406;2024-01-30T10:39:32;6.20;99.90
25963;DHT22;13760;52.588;13.406;2024-01-30T10:42:04;6.20;99.90
25963;DHT22;13760;52.588;13.406;2024-01-30T10:44:56;6.30;99.90
25963;DHT22;13760;52.588;13.406;2024-01-30T10:47:26;6.40;99.90
25963;DHT22;13760;52.588;13.406;2024-01-30T10:49:52;6.50;99.90
25963;DHT22;13760;52.588;13.406;2024-01-30T10:52:20;6.40;99.90
25963;DHT22;13760;52.588;13.406;2024-01-30T10:54:46;6.50;99.90
25963;DHT22;13760;52.588;13.406;2024-01-30T10:57:13;6.50;99.90
25963;DHT22;13760;52.588;13.406;2024-01-30T10:59:41;6.50;99.90
25963;DHT22;13760;52.588;13.406;2024-01-30T11:02:07;6.60;99.90
25963;DHT22;13760;52.588;13.406;2024-01-30T11:04:41;6.60;99.90
25963;DHT22;13760;52.588;13.406;2024-01-30T11:07:33;6.60;99.90
25963;DHT22;13760;52.588;13.406;2024-01-30T11:12:26;6.80;99.90
25963;DHT22;13760;52.588;13.406;2024-01-30T11:15:06;6.80;99.90
25963;DHT22;13760;52.588;13.406;2024-01-30T11:17:42;6.80;99.90
25963;DHT22;13760;52.588;13.406;2024-01-30T11:20:11;6.90;99.90
25963;DHT22;13760;52.588;13.406;2024-01-30T11:22:37;6.90;99.90
25963;DHT22;13760;52.588;13.406;2024-01-30T11:25:03;7.00;99.90
25963;DHT22;13760;52.588;13.406;2024-01-30T11:27:30;7.00;99.90
25963;DHT22;13760;52.588;13.406;2024-01-30T11:30:02;7.10;99.90
25963;DHT22;13760;52.588;13.406;2024-01-30T11:32:28;7.10;99.90
25963;DHT22;13760;52.588;13.406;2024-01-30T11:34:54;7.20;99.90
25963;DHT22;13760;52.588;13.406;2024-01-30T11:37:21;7.20;99.90
25963;DHT22;13760;52.588;13.406;2024-01-30T11:39:50;7.20;99.90
25963;DHT22;13760;52.588;13.406;2024-01-30T11:42:16;7.30;99.90
25963;DHT22;13760;52.588;13.406;2024-01-30T11:44:47;7.40;99.90
25963;DHT22;13760;52.588;13.406;2024-01-30T11:47:12;7.40;99.90
25963;DHT22;13760;52.588;13.406;2024-01-30T11:49:38;7.50;99.90
25963;DHT22;13760;52.588;13.406;2024-01-30T11:52:04;7.50;99.90
25963;DHT22;13760;52.588;13.406;2024-01-30T11:54:30;7.60;99.90
25963;DHT22;13760;52.588;13.406;2024-01-30T11:56:55;7.60;99.90
25963;DHT22;13760;52.588;13.406;2024-01-30T11:59:21;7.60;99.90
25963;DHT22;13760;52.588;13.406;2024-01-30T12:01:46;7.70;99.90
25963;DHT22;13760;52.588;13.406;2024-01-30T12:04:12;7.70;99.90
25963;DHT22;13760;52.588;13.406;2024-01-30T12:06:38;7.80;99.90
25963;DHT22;13760;52.588;13.406;2024-01-30T12:09:05;7.80;99.90
25963;DHT22;13760;52.588;13.406;2024-01-30T12:11:31;7.90;99.90
25963;DHT22;13760;52.588;13.406;2024-01-30T12:13:57;7.90;99.90
25963;DHT22;13760;52.588;13.406;2024-01-30T12:16:22;8.00;99.90
25963;DHT22;13760;52.588;13.406;2024-01-30T12:18:48;8.00;99.90
25963;DHT22;13760;52.588;13.406;2024-01-30T12:21:17;8.00;99.90
25963;DHT22;13760;52.588;13.406;2024-01-30T12:23:44;8.10;99.90
25963;DHT22;13760;52.588;13.406;2024-01-30T12:26:10;8.20;99.90
25963;DHT22;13760;52.588;13.406;2024-01-30T12:28:36;8.20;99.90
25963;DHT22;13760;52.588;13.406;2024-01-30T12:31:04;8.30;99.90
25963;DHT22;13760;52.588;13.406;2024-01-30T12:33:30;8.30;99.90
25963;DHT22;13760;52.588;13.406;2024-01-30T12:35:57;8.30;99.90
25963;DHT22;13760;52.588;13.406;2024-01-30T12:38:24;8.30;99.90
25963;DHT22;13760;52.588;13.406;2024-01-30T12:40:54;8.30;99.90
25963;DHT22;13760;52.588;13.406;2024-01-30T12:43:19;8.40;99.90
25963;DHT22;13760;52.588;13.406;2024-01-30T12:45:45;8.40;99.90
25963;DHT22;13760;52.588;13.406;2024-01-30T12:48:12;8.40;99.90
25963;DHT22;13760;52.588;13.406;2024-01-30T12:50:37;8.40;99.90
25963;DHT22;13760;52.588;13.406;2024-01-30T12:53:03;8.40;99.90
25963;DHT22;13760;52.588;13.406;2024-01-30T12:55:31;8.40;99.90
25963;DHT22;13760;52.588;13.406;2024-01-30T12:57:57;8.30;99.90
25963;DHT22;13760;52.588;13.406;2024-01-30T13:00:22;8.30;99.90
25963;DHT22;13760;52.588;13.406;2024-01-30T13:02:48;8.30;99.90
25963;DHT22;13760;52.588;13.406;2024-01-30T13:05:14;8.30;99.90
25963;DHT22;13760;52.588;13.406;2024-01-30T13:07:40;8.40;99.90
25963;DHT22;13760;52.588;13.406;2024-01-30T13:10:05;8.40;99.90
25963;DHT22;13760;52.588;13.406;2024-01-30T13:12:32;8.40;99.90
25963;DHT22;13760;52.588;13.406;2024-01-30T13:15:00;8.40;99.90
25963;DHT22;13760;52.588;13.406;2024-01-30T13:17:27;8.40;99.90
25963;DHT22;13760;52.588;13.406;2024-01-30T13:19:53;8.40;99.90
25963;DHT22;13760;52.588;13.406;2024-01-30T13:22:19;8.40;99.90
25963;DHT22;13760;52.588;13.406;2024-01-30T13:24:47;8.30;99.90
25963;DHT22;13760;52.588;13.406;2024-01-30T13:27:12;8.30;99.90
25963;DHT22;13760;52.588;13.406;2024-01-30T13:29:38;8.30;99.90
25963;DHT22;13760;52.588;13.406;2024-01-30T13:32:04;8.20;99.90
25963;DHT22;13760;52.588;13.406;2024-01-30T13:34:29;8.20;99.90
25963;DHT22;13760;52.588;13.406;2024-01-30T13:36:55;8.20;99.90
25963;DHT22;13760;52.588;13.406;2024-01-30T13:39:20;8.20;99.90
25963;DHT22;13760;52.588;13.406;2024-01-30T13:41:46;8.20;99.90
25963;DHT22;13760;52.588;13.406;2024-01-30T13:44:11;8.10;99.90
25963;DHT22;13760;52.588;13.406;2024-01-30T13:46:37;8.10;99.90
25963;DHT22;13760;52.588;13.406;2024-01-30T13:49:04;8.10;99.90
25963;DHT22;13760;52.588;13.406;2024-01-30T13:51:30;8.10;99.90
25963;DHT22;13760;52.588;13.406;2024-01-30T13:53:55;8.10;99.90
25963;DHT22;13760;52.588;13.406;2024-01-30T13:56:21;8.10;99.90
25963;DHT22;13760;52.588;13.406;2024-01-30T13:58:48;8.10;99.90
25963;DHT22;13760;52.588;13.406;2024-01-30T14:01:15;8.10;99.90
25963;DHT22;13760;52.588;13.406;2024-01-30T14:03:41;8.10;99.90
25963;DHT22;13760;52.588;13.406;2024-01-30T14:06:06;8.10;99.90
25963;DHT22;13760;52.588;13.406;2024-01-30T14:08:32;8.00;99.90
25963;DHT22;13760;52.588;13.406;2024-01-30T14:10:58;8.00;99.90
25963;DHT22;13760;52.588;13.406;2024-01-30T14:13:23;8.00;99.90
25963;DHT22;13760;52.588;13.406;2024-01-30T14:15:53;8.00;99.90
25963;DHT22;13760;52.588;13.406;2024-01-30T14:18:19;8.00;99.90
25963;DHT22;13760;52.588;13.406;2024-01-30T14:20:44;8.00;99.90
25963;DHT22;13760;52.588;13.406;2024-01-30T14:23:10;8.00;99.90
25963;DHT22;13760;52.588;13.406;2024-01-30T14:25:35;8.00;99.90
25963;DHT22;13760;52.588;13.406;2024-01-30T14:28:01;8.00;99.90
25963;DHT22;13760;52.588;13.406;2024-01-30T14:30:26;8.00;99.90
25963;DHT22;13760;52.588;13.406;2024-01-30T14:32:52;8.00;99.90
25963;DHT22;13760;52.588;13.406;2024-01-30T14:35:17;8.00;99.90
25963;DHT22;13760;52.588;13.406;2024-01-30T14:37:44;7.90;99.90
25963;DHT22;13760;52.588;13.406;2024-01-30T14:40:10;7.90;99.90
25963;DHT22;13760;52.588;13.406;2024-01-30T14:42:36;7.90;99.90
25963;DHT22;13760;52.588;13.406;2024-01-30T14:45:03;7.90;99.90
25963;DHT22;13760;52.588;13.406;2024-01-30T14:47:28;7.90;99.90
25963;DHT22;13760;52.588;13.406;2024-01-30T14:49:54;7.90;99.90
25963;DHT22;13760;52.588;13.406;2024-01-30T14:52:20;7.80;99.90
25963;DHT22;13760;52.588;13.406;2024-01-30T14:54:45;7.80;99.90
25963;DHT22;13760;52.588;13.406;2024-01-30T14:57:11;7.70;99.90
25963;DHT22;13760;52.588;13.406;2024-01-30T14:59:37;7.70;99.90
25963;DHT22;13760;52.588;13.406;2024-01-30T15:02:02;7.70;99.90
25963;DHT22;13760;52.588;13.406;2024-01-30T15:04:28;7.70;99.90
25963;DHT22;13760;52.588;13.406;2024-01-30T15:06:54;7.60;99.90
25963;DHT22;13760;52.588;13.406;2024-01-30T15:09:19;7.60;99.90
25963;DHT22;13760;52.588;13.406;2024-01-30T15:11:47;7.60;99.90
25963;DHT22;13760;52.588;13.406;2024-01-30T15:14:14;7.60;99.90
25963;DHT22;13760;52.588;13.406;2024-01-30T15:16:40;7.50;99.90
25963;DHT22;13760;52.588;13.406;2024-01-30T15:19:05;7.50;99.90
25963;DHT22;13760;52.588;13.406;2024-01-30T15:21:31;7.50;99.90
25963;DHT22;13760;52.588;13.406;2024-01-30T15:23:57;7.50;99.90
25963;DHT22;13760;52.588;13.406;2024-01-30T15:26:23;7.40;99.90
25963;DHT22;13760;52.588;13.406;2024-01-30T15:28:49;7.40;99.90